Herington, Kansas
Current Conditions -  °F | °C
As of 11:58 AM on Thursday 27 Nov 2014 (Local Time) from KFRI Reporting Station
Clear Clear  
Wind Chill: 33°   Ceiling: Unl
Heat Index: 33°   Visibility: 10mi
Dew Point: 18°   Wind: 2mph
Humidity: 54%   Direction: 150°SSE
Pressure: 30.47"   Gusts: NA
Location:  38.67°N, 96.94°W
Report Text: KFRI 271758Z AUTO 15002KT 10SM CLR 01/M08 A3047 RMK AO2 SNE1714B1733 SLP330 P0000 60000 T00081076 10008 21102 58019
Loading
Personal Weather Stations






























Interactive Weather Map New forecast layout! Learn more

10-Day Weather Forecast

Advertisements
Track Severe Weather on mobile